createdAt,value
2019-03-03T00:02:27.863Z,14.20
2019-03-03T00:12:33.391Z,15.10
2019-03-03T00:22:39.072Z,14.17
2019-03-03T00:32:44.695Z,14.47
2019-03-03T00:42:57.735Z,17.93
2019-03-03T00:53:04.979Z,16.80
2019-03-03T01:03:12.008Z,17.10
2019-03-03T01:13:19.231Z,17.87
2019-03-03T01:23:32.286Z,16.57
2019-03-03T01:33:37.870Z,17.13
2019-03-03T01:43:43.397Z,16.03
2019-03-03T01:53:49.001Z,17.60
2019-03-03T02:03:54.821Z,15.50
2019-03-03T02:14:00.297Z,16.43
2019-03-03T02:24:05.899Z,18.23
2019-03-03T02:34:11.533Z,17.20
2019-03-03T02:44:17.189Z,17.90
2019-03-03T02:54:23.000Z,17.23
2019-03-03T03:04:30.260Z,18.87
2019-03-03T03:14:37.277Z,19.57
2019-03-03T03:25:00.494Z,18.60
2019-03-03T03:35:12.087Z,18.70
2019-03-03T03:45:21.861Z,19.47
2019-03-03T03:55:41.389Z,21.40
2019-03-03T04:05:51.765Z,21.00
2019-03-03T04:16:04.922Z,21.73
2019-03-03T04:26:24.093Z,26.00
2019-03-03T04:36:31.269Z,27.20
2019-03-03T04:46:44.242Z,29.93
2019-03-03T04:56:51.399Z,32.90
2019-03-03T05:07:04.652Z,36.77
2019-03-03T05:17:17.732Z,35.57
2019-03-03T05:27:23.143Z,37.30
2019-03-03T05:37:28.823Z,39.23
2019-03-03T05:47:34.439Z,39.00
2019-03-03T05:57:40.130Z,39.50
2019-03-03T06:07:45.823Z,42.27
2019-03-03T06:17:52.567Z,48.27
2019-03-03T06:27:58.372Z,40.40
2019-03-03T06:38:03.949Z,30.43
2019-03-03T06:48:09.548Z,35.43
2019-03-03T06:58:15.165Z,30.70
2019-03-03T07:08:20.741Z,28.57
2019-03-03T07:18:26.447Z,28.90
2019-03-03T07:28:32.165Z,25.50
2019-03-03T07:38:37.917Z,24.60
2019-03-03T07:48:43.350Z,20.90
2019-03-03T07:58:49.002Z,21.83
2019-03-03T08:08:54.967Z,21.10
2019-03-03T08:19:00.664Z,19.73
2019-03-03T08:29:06.458Z,18.30
2019-03-03T08:39:12.413Z,18.03
2019-03-03T08:49:19.590Z,16.40
2019-03-03T08:59:26.992Z,14.70
2019-03-03T09:09:43.377Z,12.63
2019-03-03T09:19:51.036Z,11.73
2019-03-03T09:30:14.863Z,11.60
2019-03-03T09:40:31.645Z,10.10
2019-03-03T09:50:48.976Z,9.70
2019-03-03T10:00:56.304Z,10.50
2019-03-03T10:11:10.249Z,10.40
2019-03-03T10:21:32.789Z,8.37
2019-03-03T10:31:48.084Z,7.77
2019-03-03T10:41:58.494Z,7.40
2019-03-03T10:52:05.814Z,6.97
2019-03-03T11:02:24.986Z,7.03
2019-03-03T11:12:35.358Z,5.40
2019-03-03T11:22:42.556Z,5.60
2019-03-03T11:32:53.192Z,5.00
2019-03-03T11:43:00.509Z,5.50
2019-03-03T11:53:27.025Z,6.30
2019-03-03T12:03:52.990Z,5.83
2019-03-03T12:14:06.119Z,5.90
2019-03-03T12:24:16.208Z,5.40
2019-03-03T12:34:32.280Z,5.67
2019-03-03T12:44:52.240Z,5.20
2019-03-03T12:55:11.248Z,6.13
2019-03-03T13:05:36.304Z,5.47
2019-03-03T13:15:56.442Z,6.13
2019-03-03T13:26:18.925Z,6.30
2019-03-03T13:36:35.164Z,5.47
2019-03-03T13:46:40.700Z,5.53
2019-03-03T13:56:46.775Z,5.63
2019-03-03T14:06:52.728Z,5.70
2019-03-03T14:16:59.385Z,6.00
2019-03-03T14:27:10.515Z,6.47
2019-03-03T14:37:12.637Z,5.80
2019-03-03T14:47:18.233Z,6.27
2019-03-03T14:57:23.803Z,6.53
2019-03-03T15:07:29.628Z,7.23
2019-03-03T15:17:35.188Z,7.07
2019-03-03T15:27:40.768Z,7.13
2019-03-03T15:37:46.747Z,7.90
2019-03-03T15:47:52.217Z,10.50
2019-03-03T15:57:57.767Z,12.83
2019-03-03T16:08:04.234Z,19.90
2019-03-03T16:18:09.681Z,20.20
2019-03-03T16:28:15.218Z,22.27
2019-03-03T16:38:20.734Z,27.10
2019-03-03T16:48:26.398Z,25.07
2019-03-03T16:58:31.885Z,23.83
2019-03-03T17:08:37.417Z,17.83
2019-03-03T17:18:42.917Z,13.27
2019-03-03T17:28:48.730Z,10.87
2019-03-03T17:38:54.370Z,10.47
2019-03-03T17:48:59.766Z,9.07
2019-03-03T17:59:05.159Z,8.00
2019-03-03T18:09:11.593Z,10.73
2019-03-03T18:19:16.932Z,14.00
2019-03-03T18:29:22.413Z,14.40
2019-03-03T18:39:27.882Z,10.47
2019-03-03T18:49:33.468Z,10.23
2019-03-03T18:59:39.041Z,10.70
2019-03-03T19:09:44.674Z,11.37
2019-03-03T19:19:50.171Z,10.07
2019-03-03T19:29:55.773Z,9.60
2019-03-03T19:40:01.305Z,10.73
2019-03-03T19:50:10.687Z,10.50
2019-03-03T20:00:19.032Z,12.43
2019-03-03T20:10:24.689Z,9.17
2019-03-03T20:20:30.258Z,9.03
2019-03-03T20:30:35.846Z,10.43
2019-03-03T20:40:41.361Z,9.07
2019-03-03T20:50:46.894Z,8.10
2019-03-03T21:00:52.393Z,8.40
2019-03-03T21:10:57.888Z,9.23
2019-03-03T21:21:03.627Z,7.57
2019-03-03T21:31:09.069Z,7.60
2019-03-03T21:41:14.695Z,7.50
2019-03-03T21:51:20.314Z,7.77
2019-03-03T22:01:25.821Z,7.33
2019-03-03T22:11:31.399Z,8.67
2019-03-03T22:21:37.006Z,7.90
2019-03-03T22:31:42.613Z,7.83
2019-03-03T22:41:48.141Z,7.30
2019-03-03T22:51:53.552Z,7.07
2019-03-03T23:01:59.193Z,6.77
2019-03-03T23:12:23.429Z,6.30
2019-03-03T23:22:38.084Z,6.73
2019-03-03T23:32:43.570Z,6.57
2019-03-03T23:42:49.036Z,6.47
2019-03-03T23:52:54.508Z,6.17
